Time;durP1;ratioP1;P1;durP2;ratioP2;P2;SDS_P1;SDS_P2;PMS_P1;PMS_P2;Temp;Humidity;BMP_temperature;BMP_pressure;BME280_temperature;BME280_humidity;BME280_pressure;Samples;Min_cycle;Max_cycle;Signal;HPM_P1;HPM_P2
2022/07/27 00:01:20;;;;;;;27.67;4.05;;;;;;;;;;5086766;28;20119;-59
2022/07/27 00:03:48;;;;;;;21.90;3.88;;;;;;;;;;5084521;28;20166;-59
2022/07/27 00:06:15;;;;;;;29.65;3.97;;;;;;;;;;5085795;28;20059;-59
2022/07/27 00:08:43;;;;;;;31.88;3.67;;;;;;;;;;5084881;28;20110;-59
2022/07/27 00:11:11;;;;;;;19.63;3.58;;;;;;;;;;5086194;28;20524;-58
2022/07/27 00:13:39;;;;;;;24.10;3.25;;;;;;;;;;5086525;28;20137;-59
2022/07/27 00:16:07;;;;;;;15.82;3.25;;;;;;;;;;5084400;28;20064;-58
2022/07/27 00:18:34;;;;;;;;;;;;;;;;;;5086625;28;20541;-59
2022/07/27 00:21:01;;;;;;;28.60;3.40;;;;;;;;;;5083869;28;19990;-59
2022/07/27 00:23:28;;;;;;;19.33;3.05;;;;;;;;;;5085327;28;20478;-59
2022/07/27 00:25:56;;;;;;;23.98;3.50;;;;;;;;;;5085527;28;20128;-59
2022/07/27 00:28:23;;;;;;;28.55;3.53;;;;;;;;;;5083730;28;20129;-59
2022/07/27 00:30:50;;;;;;;28.83;3.25;;;;;;;;;;5087128;28;20562;-59
2022/07/27 00:33:17;;;;;;;30.23;3.63;;;;;;;;;;5085523;28;20044;-59
2022/07/27 00:35:45;;;;;;;20.00;2.92;;;;;;;;;;5086963;28;20048;-59
2022/07/27 00:38:12;;;;;;;22.48;2.90;;;;;;;;;;5086982;28;20079;-60
2022/07/27 00:40:39;;;;;;;27.02;3.35;;;;;;;;;;5085758;28;20039;-59
2022/07/27 00:43:06;;;;;;;20.92;3.78;;;;;;;;;;5085288;28;20047;-59
2022/07/27 00:45:34;;;;;;;17.98;2.95;;;;;;;;;;5066035;28;20482;-59
2022/07/27 00:48:01;;;;;;;21.85;3.15;;;;;;;;;;5087809;28;20459;-60
2022/07/27 00:50:28;;;;;;;20.48;3.17;;;;;;;;;;5088071;28;20055;-59
2022/07/27 00:52:56;;;;;;;32.60;3.75;;;;;;;;;;5087341;28;20048;-59
2022/07/27 00:55:24;;;;;;;23.20;4.55;;;;;;;;;;5087550;28;20141;-59
2022/07/27 00:57:51;;;;;;;24.02;3.35;;;;;;;;;;5086952;28;20109;-59
2022/07/27 01:00:26;;;;;;;22.83;3.55;;;;;;;;;;5087026;28;20091;-59
2022/07/27 01:02:54;;;;;;;22.58;3.00;;;;;;;;;;5086822;28;20051;-59
2022/07/27 01:05:23;;;;;;;16.55;3.40;;;;;;;;;;5084444;28;20170;-60
2022/07/27 01:08:03;;;;;;;22.27;3.35;;;;;;;;;;5085598;28;20056;-60
2022/07/27 01:10:31;;;;;;;22.35;3.10;;;;;;;;;;5085440;28;20105;-59
2022/07/27 01:12:58;;;;;;;17.73;2.80;;;;;;;;;;5087697;28;20080;-59
2022/07/27 01:15:25;;;;;;;20.70;3.42;;;;;;;;;;5086552;28;20067;-59
2022/07/27 01:17:52;;;;;;;26.42;3.65;;;;;;;;;;5086924;28;20047;-60
2022/07/27 01:20:20;;;;;;;22.90;3.42;;;;;;;;;;5087131;28;20044;-59
2022/07/27 01:22:47;;;;;;;22.55;3.10;;;;;;;;;;5086704;28;20086;-59
2022/07/27 01:25:14;;;;;;;20.50;3.05;;;;;;;;;;5085915;28;20048;-59
2022/07/27 01:27:41;;;;;;;21.85;3.00;;;;;;;;;;5085561;28;20080;-59
2022/07/27 01:30:29;;;;;;;17.75;3.08;;;;;;;;;;5085753;28;20087;-59
2022/07/27 01:33:00;;;;;;;21.48;3.42;;;;;;;;;;5084149;28;20078;-59
2022/07/27 01:35:28;;;;;;;23.13;3.47;;;;;;;;;;5083738;28;20087;-59
2022/07/27 01:37:55;;;;;;;26.10;3.17;;;;;;;;;;5083909;28;20140;-59
2022/07/27 01:40:22;;;;;;;16.25;2.63;;;;;;;;;;5084204;28;20231;-59
2022/07/27 01:42:50;;;;;;;20.80;3.55;;;;;;;;;;5085061;28;20084;-59
2022/07/27 01:45:17;;;;;;;19.08;3.10;;;;;;;;;;5084049;28;20076;-58
2022/07/27 01:47:44;;;;;;;32.90;3.42;;;;;;;;;;5081642;28;20564;-58
2022/07/27 01:50:12;;;;;;;24.08;3.45;;;;;;;;;;5084717;28;20048;-59
2022/07/27 01:52:39;;;;;;;22.58;3.20;;;;;;;;;;5082141;28;20075;-59
2022/07/27 01:55:10;;;;;;;22.67;2.72;;;;;;;;;;5084711;28;20108;-59
2022/07/27 01:57:38;;;;;;;20.85;2.72;;;;;;;;;;5085155;28;20513;-59
2022/07/27 02:00:06;;;;;;;25.45;2.72;;;;;;;;;;5084355;28;20079;-59
2022/07/27 02:02:34;;;;;;;25.55;3.63;;;;;;;;;;5083020;28;20064;-59
2022/07/27 02:05:01;;;;;;;25.02;3.67;;;;;;;;;;5084199;28;20605;-59
2022/07/27 02:07:28;;;;;;;25.98;3.00;;;;;;;;;;5083255;28;20051;-59
2022/07/27 02:09:56;;;;;;;20.33;2.60;;;;;;;;;;5083173;28;20079;-60
2022/07/27 02:12:35;;;;;;;22.40;2.90;;;;;;;;;;5082365;28;20083;-59
2022/07/27 02:15:04;;;;;;;20.73;2.72;;;;;;;;;;5085255;28;20052;-60
2022/07/27 02:17:32;;;;;;;23.35;3.42;;;;;;;;;;5084629;28;20597;-59
2022/07/27 02:20:01;;;;;;;16.40;2.58;;;;;;;;;;5082241;28;20059;-60
2022/07/27 02:22:29;;;;;;;26.83;3.30;;;;;;;;;;5082686;28;20091;-59
2022/07/27 02:24:56;;;;;;;20.98;2.88;;;;;;;;;;5080490;28;20117;-59
2022/07/27 02:27:23;;;;;;;21.23;3.38;;;;;;;;;;5084356;28;20075;-59
2022/07/27 02:29:52;;;;;;;;;;;;;;;;;;5087420;28;20056;-59
2022/07/27 02:32:19;;;;;;;22.15;2.63;;;;;;;;;;5088698;28;19959;-61
2022/07/27 02:34:47;;;;;;;20.92;2.78;;;;;;;;;;5087349;28;20462;-59
2022/07/27 02:37:14;;;;;;;18.60;3.05;;;;;;;;;;5089103;28;20422;-59
2022/07/27 02:39:41;;;;;;;23.85;3.00;;;;;;;;;;5086632;28;20129;-60
2022/07/27 02:42:09;;;;;;;15.88;2.45;;;;;;;;;;5086257;28;20098;-59
2022/07/27 02:44:36;;;;;;;23.15;3.33;;;;;;;;;;5087989;28;20522;-60
2022/07/27 02:47:04;;;;;;;18.25;2.67;;;;;;;;;;5087114;28;20101;-60
2022/07/27 02:49:31;;;;;;;18.25;2.83;;;;;;;;;;5088339;28;20083;-59
2022/07/27 02:51:58;;;;;;;19.98;2.50;;;;;;;;;;5087955;28;20530;-59
2022/07/27 02:54:26;;;;;;;24.42;3.05;;;;;;;;;;5090416;28;20109;-60
2022/07/27 02:56:54;;;;;;;14.65;2.40;;;;;;;;;;5087470;28;20109;-60
2022/07/27 02:59:22;;;;;;;18.50;2.35;;;;;;;;;;5087298;28;20134;-59
2022/07/27 03:01:49;;;;;;;24.42;3.38;;;;;;;;;;5090528;28;20109;-59
2022/07/27 03:04:17;;;;;;;18.13;2.38;;;;;;;;;;5090037;28;20136;-59
2022/07/27 03:06:45;;;;;;;14.82;3.05;;;;;;;;;;5087784;28;20860;-58
2022/07/27 03:09:12;;;;;;;23.13;3.10;;;;;;;;;;5090411;28;20158;-59
2022/07/27 03:11:40;;;;;;;20.10;2.67;;;;;;;;;;5089002;28;20142;-59
2022/07/27 03:14:08;;;;;;;24.15;2.67;;;;;;;;;;5087464;28;20083;-59
2022/07/27 03:16:35;;;;;;;19.42;3.13;;;;;;;;;;5088291;28;20105;-58
2022/07/27 03:19:04;;;;;;;17.25;2.63;;;;;;;;;;5088340;28;20148;-59
2022/07/27 03:21:31;;;;;;;21.08;3.45;;;;;;;;;;5088424;28;20438;-58
2022/07/27 03:23:58;;;;;;;18.25;2.42;;;;;;;;;;5090434;28;20083;-59
2022/07/27 03:26:25;;;;;;;17.42;2.50;;;;;;;;;;5087641;28;20515;-60
2022/07/27 03:28:53;;;;;;;17.27;2.22;;;;;;;;;;5084662;28;20076;-59
2022/07/27 03:31:20;;;;;;;14.05;2.88;;;;;;;;;;5087446;28;20095;-59
2022/07/27 03:33:47;;;;;;;17.77;2.70;;;;;;;;;;5085243;28;20045;-59
2022/07/27 03:36:15;;;;;;;25.70;2.72;;;;;;;;;;5087564;28;20749;-59
2022/07/27 03:38:42;;;;;;;20.65;2.83;;;;;;;;;;5085191;28;20537;-60
2022/07/27 03:41:09;;;;;;;21.23;2.67;;;;;;;;;;5085885;28;20056;-59
2022/07/27 03:43:37;;;;;;;18.25;2.30;;;;;;;;;;5085471;28;20083;-59
2022/07/27 03:46:04;;;;;;;26.33;2.75;;;;;;;;;;5086475;28;20568;-59
2022/07/27 03:48:31;;;;;;;26.40;2.55;;;;;;;;;;5089341;28;20063;-60
2022/07/27 03:50:59;;;;;;;15.90;2.53;;;;;;;;;;5088909;28;20052;-60
2022/07/27 03:53:26;;;;;;;18.23;2.65;;;;;;;;;;5088961;28;21194;-60
2022/07/27 03:55:53;;;;;;;20.33;2.67;;;;;;;;;;5089207;28;20080;-60
2022/07/27 03:58:22;;;;;;;23.08;2.47;;;;;;;;;;5087531;28;20636;-59
2022/07/27 04:00:49;;;;;;;24.15;2.17;;;;;;;;;;5087593;28;20079;-59
2022/07/27 04:03:17;;;;;;;12.63;2.15;;;;;;;;;;5089099;28;20587;-59
2022/07/27 04:05:44;;;;;;;22.02;3.22;;;;;;;;;;5087910;28;20083;-59
2022/07/27 04:08:12;;;;;;;22.60;2.85;;;;;;;;;;5089334;28;20463;-60
2022/07/27 04:10:39;;;;;;;13.27;2.58;;;;;;;;;;5087865;28;20078;-59
2022/07/27 04:13:10;;;;;;;15.30;2.50;;;;;;;;;;5089414;28;20427;-59
2022/07/27 04:15:39;;;;;;;13.60;2.67;;;;;;;;;;5088053;28;20131;-59
2022/07/27 04:18:06;;;;;;;18.45;3.05;;;;;;;;;;5087100;28;20127;-58
2022/07/27 04:20:33;;;;;;;12.90;3.33;;;;;;;;;;5090010;28;20107;-59
2022/07/27 04:23:01;;;;;;;18.60;2.55;;;;;;;;;;5089293;28;20544;-59
2022/07/27 04:25:29;;;;;;;24.50;2.80;;;;;;;;;;5087464;28;20530;-60
2022/07/27 04:27:57;;;;;;;22.35;2.50;;;;;;;;;;5090195;28;20084;-59
2022/07/27 04:30:24;;;;;;;18.42;2.53;;;;;;;;;;5079928;28;20040;-59
2022/07/27 04:32:51;;;;;;;16.73;2.80;;;;;;;;;;5085300;28;20099;-59
2022/07/27 04:35:19;;;;;;;12.77;2.08;;;;;;;;;;5085178;28;20049;-59
2022/07/27 04:37:52;;;;;;;13.63;1.83;;;;;;;;;;5085284;28;20447;-59
2022/07/27 04:40:26;;;;;;;14.32;1.90;;;;;;;;;;5086685;28;20060;-59
2022/07/27 04:42:53;;;;;;;;;;;;;;;;;;5087223;28;20165;-59
2022/07/27 04:45:20;;;;;;;10.48;2.00;;;;;;;;;;5086457;28;20049;-59
2022/07/27 04:47:48;;;;;;;16.13;2.20;;;;;;;;;;5083931;28;20086;-59
2022/07/27 04:50:15;;;;;;;16.90;2.20;;;;;;;;;;5085581;28;20487;-59
2022/07/27 04:52:43;;;;;;;10.27;1.75;;;;;;;;;;5086512;28;20044;-59
2022/07/27 04:55:10;;;;;;;15.05;2.40;;;;;;;;;;5087634;28;20072;-60
2022/07/27 04:57:40;;;;;;;16.63;1.90;;;;;;;;;;5083301;28;20131;-59
2022/07/27 05:00:08;;;;;;;15.20;1.98;;;;;;;;;;5086471;28;20048;-59
2022/07/27 05:02:42;;;;;;;13.50;2.00;;;;;;;;;;5085376;28;20125;-59
2022/07/27 05:05:09;;;;;;;12.20;2.00;;;;;;;;;;5086162;28;20076;-59
2022/07/27 05:07:36;;;;;;;18.45;2.10;;;;;;;;;;5065071;28;20079;-59
2022/07/27 05:10:04;;;;;;;12.52;2.50;;;;;;;;;;5087301;28;20076;-59
2022/07/27 05:12:31;;;;;;;14.70;2.20;;;;;;;;;;5087099;28;20189;-59
2022/07/27 05:14:59;;;;;;;10.75;2.15;;;;;;;;;;5084145;28;20088;-57
2022/07/27 05:17:26;;;;;;;;;;;;;;;;;;5085450;28;20487;-59
2022/07/27 05:19:53;;;;;;;6.93;1.70;;;;;;;;;;5087500;28;19937;-59
2022/07/27 05:22:20;;;;;;;14.63;1.85;;;;;;;;;;5088807;28;20079;-59
2022/07/27 05:24:48;;;;;;;10.65;2.17;;;;;;;;;;5088041;28;20080;-59
2022/07/27 05:27:16;;;;;;;9.30;1.83;;;;;;;;;;5086949;28;20116;-59
2022/07/27 05:29:44;;;;;;;8.23;1.95;;;;;;;;;;5086568;28;20133;-59
2022/07/27 05:32:11;;;;;;;9.98;2.00;;;;;;;;;;5086274;28;20133;-59
2022/07/27 05:34:40;;;;;;;8.32;2.47;;;;;;;;;;5086272;28;20059;-60
2022/07/27 05:37:08;;;;;;;6.20;2.00;;;;;;;;;;5083592;28;20613;-60
2022/07/27 05:39:35;;;;;;;10.48;2.42;;;;;;;;;;5085125;28;20084;-60
2022/07/27 05:42:03;;;;;;;3.90;1.60;;;;;;;;;;5084251;28;20090;-59
2022/07/27 05:44:30;;;;;;;10.55;2.00;;;;;;;;;;5086780;28;20451;-59
2022/07/27 05:46:58;;;;;;;5.28;1.50;;;;;;;;;;5087743;28;20087;-59
2022/07/27 05:49:25;;;;;;;5.88;2.40;;;;;;;;;;5087334;28;20090;-60
2022/07/27 05:51:53;;;;;;;5.43;1.70;;;;;;;;;;5084518;28;20109;-60
2022/07/27 05:54:20;;;;;;;7.88;1.88;;;;;;;;;;5085629;28;20087;-59
2022/07/27 05:56:47;;;;;;;5.40;1.77;;;;;;;;;;5085278;28;20094;-59
2022/07/27 05:59:15;;;;;;;3.10;1.77;;;;;;;;;;5084694;28;20083;-59
2022/07/27 06:01:42;;;;;;;;;;;;;;;;;;5087653;28;20122;-59
2022/07/27 06:04:09;;;;;;;1.92;0.70;;;;;;;;;;5087052;28;19924;-60
2022/07/27 06:09:27;;;;;;;1.33;0.68;;;;;;;;;;5085598;28;20105;-59
2022/07/27 06:11:54;;;;;;;1.45;0.70;;;;;;;;;;5086343;28;20143;-59
2022/07/27 06:14:21;;;;;;;2.08;0.70;;;;;;;;;;5087852;28;20114;-59
2022/07/27 06:16:49;;;;;;;1.92;0.60;;;;;;;;;;5082304;28;20120;-59
2022/07/27 06:19:16;;;;;;;10.00;0.88;;;;;;;;;;5083795;28;20170;-58
2022/07/27 06:21:43;;;;;;;2.22;1.27;;;;;;;;;;5086546;28;20082;-59
2022/07/27 06:24:19;;;;;;;1.48;0.70;;;;;;;;;;5086574;28;20112;-58
2022/07/27 06:26:46;;;;;;;1.42;0.45;;;;;;;;;;5087300;28;20056;-56
2022/07/27 06:29:13;;;;;;;2.65;0.80;;;;;;;;;;5087197;28;20074;-58
2022/07/27 06:31:41;;;;;;;1.58;0.32;;;;;;;;;;5084004;28;20659;-59
2022/07/27 06:34:10;;;;;;;0.32;0.32;;;;;;;;;;5087009;28;20083;-58
2022/07/27 06:36:42;;;;;;;0.85;0.43;;;;;;;;;;5087377;28;20518;-57
2022/07/27 06:39:10;;;;;;;0.57;0.30;;;;;;;;;;5087386;28;20517;-58
2022/07/27 06:41:37;;;;;;;2.58;0.25;;;;;;;;;;5086320;28;20052;-58
2022/07/27 06:44:05;;;;;;;1.65;0.47;;;;;;;;;;5088140;28;20091;-57
2022/07/27 06:46:32;;;;;;;0.20;0.20;;;;;;;;;;5086158;28;20084;-57
2022/07/27 06:48:59;;;;;;;1.95;0.20;;;;;;;;;;5086829;28;20220;-58
2022/07/27 06:51:26;;;;;;;0.65;0.32;;;;;;;;;;5088288;28;20048;-57
2022/07/27 06:53:54;;;;;;;2.83;0.85;;;;;;;;;;5083506;28;20059;-58
2022/07/27 06:56:21;;;;;;;3.83;0.30;;;;;;;;;;5085534;28;20087;-59
2022/07/27 06:58:49;;;;;;;0.57;0.22;;;;;;;;;;5083663;28;20146;-58
2022/07/27 07:01:17;;;;;;;0.20;0.20;;;;;;;;;;5080707;28;20131;-59
2022/07/27 07:03:44;;;;;;;3.22;0.20;;;;;;;;;;5078529;28;20067;-60
2022/07/27 07:06:11;;;;;;;0.20;0.20;;;;;;;;;;5080432;28;20732;-60
2022/07/27 07:08:39;;;;;;;4.28;0.30;;;;;;;;;;5082983;28;20048;-59
2022/07/27 07:11:08;;;;;;;1.80;0.52;;;;;;;;;;5083103;28;20461;-58
2022/07/27 07:13:35;;;;;;;0.88;0.60;;;;;;;;;;5082498;28;20514;-58
2022/07/27 07:16:06;;;;;;;2.63;0.73;;;;;;;;;;5084613;28;20084;-58
2022/07/27 07:18:33;;;;;;;;;;;;;;;;;;5086568;28;20566;-59
2022/07/27 07:21:01;;;;;;;1.10;0.80;;;;;;;;;;5088432;28;19923;-58
2022/07/27 07:23:29;;;;;;;1.67;0.63;;;;;;;;;;5088599;28;20095;-59
2022/07/27 07:25:56;;;;;;;1.50;0.88;;;;;;;;;;5085287;28;20556;-59
2022/07/27 07:28:23;;;;;;;2.28;0.98;;;;;;;;;;5088916;28;20094;-58
2022/07/27 07:30:50;;;;;;;8.27;0.95;;;;;;;;;;5087402;28;20080;-58
2022/07/27 07:33:18;;;;;;;1.08;0.77;;;;;;;;;;5088079;28;20199;-58
2022/07/27 07:35:45;;;;;;;2.05;0.70;;;;;;;;;;5088898;28;20094;-57
2022/07/27 07:38:33;;;;;;;1.17;0.90;;;;;;;;;;5089829;28;20044;-59
2022/07/27 07:41:01;;;;;;;0.70;0.60;;;;;;;;;;5088922;28;20086;-59
2022/07/27 07:43:28;;;;;;;3.17;1.23;;;;;;;;;;5089796;28;20087;-58
2022/07/27 07:45:55;;;;;;;2.20;1.20;;;;;;;;;;5091505;28;20056;-57
2022/07/27 07:48:22;;;;;;;2.72;1.80;;;;;;;;;;5090752;28;20052;-58
2022/07/27 07:50:50;;;;;;;6.72;1.85;;;;;;;;;;5089952;28;20125;-58
2022/07/27 07:53:20;;;;;;;2.65;1.75;;;;;;;;;;5089103;28;20494;-59
2022/07/27 07:55:48;;;;;;;7.80;2.28;;;;;;;;;;5086289;28;21604;-58
2022/07/27 07:58:15;;;;;;;4.30;2.30;;;;;;;;;;5085695;28;20144;-58
2022/07/27 08:00:43;;;;;;;4.22;2.40;;;;;;;;;;5088209;28;20075;-58
2022/07/27 08:03:10;;;;;;;4.00;2.17;;;;;;;;;;5086830;28;20052;-57
2022/07/27 08:05:37;;;;;;;3.75;1.77;;;;;;;;;;5081479;28;20047;-58
2022/07/27 08:08:05;;;;;;;2.00;1.35;;;;;;;;;;5082106;28;20072;-58
2022/07/27 08:10:32;;;;;;;;;;;;;;;;;;5086461;28;20118;-59
2022/07/27 08:12:59;;;;;;;3.90;0.90;;;;;;;;;;5085554;28;20568;-58
2022/07/27 08:15:27;;;;;;;0.80;0.70;;;;;;;;;;5086247;28;21059;-56
2022/07/27 08:18:01;;;;;;;1.33;0.75;;;;;;;;;;5087062;28;20488;-57
2022/07/27 08:20:28;;;;;;;2.75;0.55;;;;;;;;;;5086533;28;20052;-59
2022/07/27 08:22:56;;;;;;;0.45;0.45;;;;;;;;;;5082794;28;20669;-58
2022/07/27 08:25:23;;;;;;;3.95;0.57;;;;;;;;;;5081650;28;20479;-59
2022/07/27 08:27:50;;;;;;;3.83;0.50;;;;;;;;;;5083910;28;20157;-58
2022/07/27 08:30:19;;;;;;;3.40;0.50;;;;;;;;;;5088116;28;20570;-57
2022/07/27 08:32:54;;;;;;;4.97;0.60;;;;;;;;;;5084777;28;20056;-58
2022/07/27 08:35:22;;;;;;;0.70;0.55;;;;;;;;;;5063874;28;20060;-58
2022/07/27 08:37:50;;;;;;;0.52;0.50;;;;;;;;;;5085738;28;20051;-58
2022/07/27 08:40:18;;;;;;;1.75;0.60;;;;;;;;;;5084206;28;20052;-59
2022/07/27 08:43:05;;;;;;;2.72;0.65;;;;;;;;;;5086053;28;20052;-57
2022/07/27 08:45:33;;;;;;;0.30;0.30;;;;;;;;;;5084868;28;20060;-57
2022/07/27 08:48:01;;;;;;;5.82;0.68;;;;;;;;;;5087380;28;20118;-59
2022/07/27 08:50:29;;;;;;;0.40;0.40;;;;;;;;;;5083832;28;20103;-57
2022/07/27 08:53:02;;;;;;;1.77;0.50;;;;;;;;;;5084768;28;20052;-58
2022/07/27 08:55:31;;;;;;;1.33;0.60;;;;;;;;;;5082853;28;20063;-58
2022/07/27 08:57:59;;;;;;;0.73;0.47;;;;;;;;;;5083839;28;20131;-59
2022/07/27 09:00:30;;;;;;;1.55;0.40;;;;;;;;;;5082313;28;20056;-58
2022/07/27 09:02:57;;;;;;;0.90;0.50;;;;;;;;;;5084628;28;20044;-56
2022/07/27 09:05:25;;;;;;;0.85;0.45;;;;;;;;;;5079712;28;20056;-58
2022/07/27 09:08:12;;;;;;;1.90;0.60;;;;;;;;;;5083837;28;20048;-59
2022/07/27 09:10:40;;;;;;;1.10;0.50;;;;;;;;;;5086332;28;20513;-55
2022/07/27 09:13:19;;;;;;;1.02;0.60;;;;;;;;;;5087328;28;20523;-56
2022/07/27 09:15:47;;;;;;;2.30;0.60;;;;;;;;;;5087085;28;20102;-58
2022/07/27 09:18:36;;;;;;;1.45;0.60;;;;;;;;;;5088218;28;20062;-59
2022/07/27 09:21:08;;;;;;;0.85;0.57;;;;;;;;;;5086214;28;20422;-57
2022/07/27 09:23:35;;;;;;;0.75;0.60;;;;;;;;;;5087730;28;20110;-55
2022/07/27 09:26:02;;;;;;;;;;;;;;;;;;5086142;28;20055;-58
2022/07/27 09:28:37;;;;;;;1.10;0.40;;;;;;;;;;5083471;28;19963;-58
2022/07/27 09:31:09;;;;;;;1.08;0.50;;;;;;;;;;5084338;28;20175;-56
2022/07/27 09:33:40;;;;;;;1.33;0.60;;;;;;;;;;5087077;28;20106;-58
2022/07/27 09:36:08;;;;;;;2.28;0.68;;;;;;;;;;5086467;28;20048;-57
2022/07/27 09:38:35;;;;;;;0.73;0.50;;;;;;;;;;5088260;28;20056;-57
2022/07/27 09:41:05;;;;;;;1.48;0.63;;;;;;;;;;5089108;28;20087;-57
2022/07/27 09:43:44;;;;;;;0.98;0.50;;;;;;;;;;5086371;28;20056;-57
2022/07/27 09:46:31;;;;;;;;;;;;;;;;;;5087744;28;20422;-58
2022/07/27 09:48:59;;;;;;;0.75;0.63;;;;;;;;;;5083613;28;19926;-57
2022/07/27 09:51:27;;;;;;;0.25;0.25;;;;;;;;;;5086045;28;20047;-56
2022/07/27 09:54:15;;;;;;;1.13;0.73;;;;;;;;;;5083210;28;20135;-58
2022/07/27 09:56:43;;;;;;;0.68;0.50;;;;;;;;;;5086099;28;20486;-58
2022/07/27 09:59:17;;;;;;;0.43;0.43;;;;;;;;;;5087327;28;20056;-57
2022/07/27 10:01:44;;;;;;;0.43;0.43;;;;;;;;;;5084356;28;20832;-58
2022/07/27 10:04:20;;;;;;;0.50;0.50;;;;;;;;;;5082354;28;20117;-58
2022/07/27 10:06:47;;;;;;;;;;;;;;;;;;5083702;28;20110;-56
2022/07/27 10:09:30;;;;;;;0.55;0.50;;;;;;;;;;5083674;28;19928;-55
2022/07/27 10:11:58;;;;;;;1.55;0.60;;;;;;;;;;5082942;28;20487;-58
2022/07/27 10:14:25;;;;;;;1.30;0.60;;;;;;;;;;5083902;28;20465;-59
2022/07/27 10:16:53;;;;;;;0.93;0.65;;;;;;;;;;5081344;28;20075;-58
2022/07/27 10:19:33;;;;;;;0.70;0.70;;;;;;;;;;5083336;28;20567;-58
2022/07/27 10:22:00;;;;;;;1.45;0.90;;;;;;;;;;5085288;28;20457;-58
2022/07/27 10:24:36;;;;;;;1.02;0.80;;;;;;;;;;5086621;28;20055;-58
2022/07/27 10:27:27;;;;;;;3.67;1.17;;;;;;;;;;5083185;28;20044;-58
2022/07/27 10:29:56;;;;;;;0.47;0.47;;;;;;;;;;5084971;28;20045;-58
2022/07/27 10:32:23;;;;;;;0.80;0.50;;;;;;;;;;5085989;28;20476;-57
2022/07/27 10:34:50;;;;;;;1.00;0.75;;;;;;;;;;5081051;28;20055;-56
2022/07/27 10:37:31;;;;;;;0.40;0.40;;;;;;;;;;5084133;28;20584;-56
2022/07/27 10:42:46;;;;;;;1.33;0.50;;;;;;;;;;5086358;28;20679;-56
2022/07/27 10:45:20;;;;;;;0.75;0.45;;;;;;;;;;5078492;28;20044;-57
2022/07/27 10:47:49;;;;;;;0.85;0.60;;;;;;;;;;5080003;28;20090;-56
2022/07/27 10:50:17;;;;;;;1.90;0.73;;;;;;;;;;5087916;28;20097;-56
2022/07/27 10:52:46;;;;;;;0.73;0.55;;;;;;;;;;5088832;28;20068;-57
2022/07/27 10:55:30;;;;;;;0.65;0.50;;;;;;;;;;5087291;28;20083;-57
2022/07/27 10:58:18;;;;;;;1.40;0.50;;;;;;;;;;5087519;28;20137;-59
2022/07/27 11:00:50;;;;;;;0.80;0.35;;;;;;;;;;5090411;28;20059;-56
2022/07/27 11:03:31;;;;;;;2.05;0.55;;;;;;;;;;5090093;28;20052;-57
2022/07/27 11:06:07;;;;;;;0.20;0.20;;;;;;;;;;5089875;28;20128;-58
2022/07/27 11:08:54;;;;;;;2.10;0.55;;;;;;;;;;5089580;28;20526;-56
2022/07/27 11:11:42;;;;;;;9.33;0.50;;;;;;;;;;5089259;28;20056;-58
2022/07/27 11:14:10;;;;;;;0.35;0.35;;;;;;;;;;5084260;28;20461;-58
2022/07/27 11:16:38;;;;;;;0.40;0.40;;;;;;;;;;5084415;28;20052;-58
2022/07/27 11:19:22;;;;;;;3.25;0.22;;;;;;;;;;5082949;28;20129;-57
2022/07/27 11:21:52;;;;;;;1.27;0.30;;;;;;;;;;5084723;28;20469;-58
2022/07/27 11:24:22;;;;;;;0.40;0.30;;;;;;;;;;5089814;28;20048;-56
2022/07/27 11:26:50;;;;;;;0.60;0.60;;;;;;;;;;5088821;28;20155;-58
2022/07/27 11:29:19;;;;;;;0.65;0.50;;;;;;;;;;5089160;28;20048;-58
2022/07/27 11:31:47;;;;;;;0.38;0.38;;;;;;;;;;5088108;28;20091;-59
2022/07/27 11:34:28;;;;;;;0.57;0.50;;;;;;;;;;5089991;28;20549;-57
2022/07/27 11:37:00;;;;;;;0.73;0.40;;;;;;;;;;5090981;28;20477;-59
2022/07/27 11:39:29;;;;;;;0.93;0.50;;;;;;;;;;5089377;28;20125;-58
2022/07/27 11:42:17;;;;;;;0.50;0.50;;;;;;;;;;5087836;28;20044;-57
2022/07/27 11:44:49;;;;;;;2.55;0.40;;;;;;;;;;5088398;28;20048;-57
2022/07/27 11:47:17;;;;;;;0.30;0.30;;;;;;;;;;5086501;28;20044;-57
2022/07/27 11:49:45;;;;;;;0.77;0.30;;;;;;;;;;5091050;28;20133;-57
2022/07/27 11:52:16;;;;;;;0.43;0.30;;;;;;;;;;5090274;28;20063;-56
2022/07/27 11:54:44;;;;;;;0.73;0.47;;;;;;;;;;5090998;28;20055;-58
2022/07/27 11:57:14;;;;;;;1.00;0.45;;;;;;;;;;5086569;28;20056;-58
2022/07/27 11:59:43;;;;;;;0.85;0.47;;;;;;;;;;5083728;28;20131;-58
2022/07/27 12:02:16;;;;;;;0.57;0.40;;;;;;;;;;5086186;28;20068;-56
2022/07/27 12:04:46;;;;;;;1.02;0.60;;;;;;;;;;5085947;28;20110;-58
2022/07/27 12:07:16;;;;;;;0.40;0.32;;;;;;;;;;5086388;28;20470;-58
2022/07/27 12:09:45;;;;;;;0.43;0.40;;;;;;;;;;5084592;28;20083;-58
2022/07/27 12:12:23;;;;;;;0.57;0.40;;;;;;;;;;5080978;28;20160;-57
2022/07/27 12:14:55;;;;;;;0.30;0.30;;;;;;;;;;5088679;28;20125;-54
2022/07/27 12:17:27;;;;;;;0.55;0.55;;;;;;;;;;5085203;28;20078;-55
2022/07/27 12:19:55;;;;;;;0.25;0.25;;;;;;;;;;5083350;28;20083;-54
2022/07/27 12:22:23;;;;;;;0.30;0.30;;;;;;;;;;5088240;28;20129;-57
2022/07/27 12:24:51;;;;;;;0.50;0.35;;;;;;;;;;5087731;28;20553;-58
2022/07/27 12:27:20;;;;;;;0.45;0.40;;;;;;;;;;5085640;28;20044;-54
2022/07/27 12:30:15;;;;;;;0.43;0.35;;;;;;;;;;5086442;28;20088;-57
2022/07/27 12:32:43;;;;;;;3.80;0.50;;;;;;;;;;5082028;28;20208;-58
2022/07/27 12:35:18;;;;;;;1.05;0.50;;;;;;;;;;5081757;28;20717;-58
2022/07/27 12:37:45;;;;;;;0.65;0.40;;;;;;;;;;5084762;28;20086;-57
2022/07/27 12:40:16;;;;;;;0.82;0.52;;;;;;;;;;5084524;28;20079;-59
2022/07/27 12:42:44;;;;;;;0.30;0.30;;;;;;;;;;5083842;28;20392;-54
2022/07/27 12:45:16;;;;;;;0.60;0.43;;;;;;;;;;5087336;28;20052;-54
2022/07/27 12:47:44;;;;;;;1.30;0.70;;;;;;;;;;5085501;28;20448;-59
2022/07/27 12:50:13;;;;;;;0.85;0.30;;;;;;;;;;5082906;28;20110;-57
2022/07/27 12:52:43;;;;;;;0.30;0.30;;;;;;;;;;5086072;28;20059;-57
2022/07/27 12:55:12;;;;;;;0.57;0.30;;;;;;;;;;5069826;28;20063;-56
2022/07/27 12:57:42;;;;;;;1.50;0.40;;;;;;;;;;5085261;28;20048;-56
2022/07/27 13:00:23;;;;;;;0.63;0.45;;;;;;;;;;5087124;28;20063;-58
2022/07/27 13:02:59;;;;;;;0.43;0.30;;;;;;;;;;5083931;28;20430;-53
2022/07/27 13:05:26;;;;;;;1.15;0.30;;;;;;;;;;5084662;28;20164;-57
2022/07/27 13:07:54;;;;;;;0.85;0.40;;;;;;;;;;5083718;28;20601;-58
2022/07/27 13:10:21;;;;;;;3.53;0.40;;;;;;;;;;5085944;28;20040;-58
2022/07/27 13:12:49;;;;;;;0.63;0.35;;;;;;;;;;5082147;28;20585;-58
2022/07/27 13:15:17;;;;;;;2.22;0.50;;;;;;;;;;5085513;28;20052;-58
2022/07/27 13:17:45;;;;;;;0.30;0.30;;;;;;;;;;5083000;28;20109;-57
2022/07/27 13:20:15;;;;;;;2.65;0.30;;;;;;;;;;5087412;28;20080;-57
2022/07/27 13:22:42;;;;;;;0.28;0.28;;;;;;;;;;5088286;28;20503;-57
2022/07/27 13:25:11;;;;;;;1.95;0.50;;;;;;;;;;5087368;28;20086;-57
2022/07/27 13:27:43;;;;;;;0.40;0.40;;;;;;;;;;5084137;28;20044;-57
2022/07/27 13:30:12;;;;;;;0.43;0.43;;;;;;;;;;5086390;28;20502;-57
2022/07/27 13:32:39;;;;;;;1.42;0.50;;;;;;;;;;5084727;28;20134;-56
2022/07/27 13:35:07;;;;;;;2.88;0.55;;;;;;;;;;5087245;28;20060;-55
2022/07/27 13:37:35;;;;;;;0.50;0.50;;;;;;;;;;5086958;28;20055;-56
2022/07/27 13:40:04;;;;;;;1.30;0.50;;;;;;;;;;5087059;28;20056;-57
2022/07/27 13:42:31;;;;;;;0.20;0.20;;;;;;;;;;5085027;28;20055;-56
2022/07/27 13:45:01;;;;;;;0.43;0.43;;;;;;;;;;5080431;28;20077;-57
2022/07/27 13:47:37;;;;;;;0.20;0.20;;;;;;;;;;5083846;28;20059;-57
2022/07/27 13:50:04;;;;;;;0.38;0.30;;;;;;;;;;5087075;28;20055;-56
2022/07/27 13:52:32;;;;;;;0.30;0.30;;;;;;;;;;5077945;28;20048;-58
2022/07/27 13:54:59;;;;;;;0.35;0.35;;;;;;;;;;5085381;28;20114;-57
2022/07/27 13:57:26;;;;;;;2.13;0.60;;;;;;;;;;5083499;28;20113;-58
2022/07/27 13:59:54;;;;;;;0.38;0.38;;;;;;;;;;5082544;28;20487;-56
2022/07/27 14:02:21;;;;;;;0.73;0.38;;;;;;;;;;5086661;28;20102;-58
2022/07/27 14:04:52;;;;;;;0.77;0.40;;;;;;;;;;5084287;28;20498;-57
2022/07/27 14:07:20;;;;;;;0.82;0.32;;;;;;;;;;5087211;28;20121;-57
2022/07/27 14:12:40;;;;;;;0.30;0.30;;;;;;;;;;5086823;28;20102;-55
2022/07/27 14:15:07;;;;;;;1.08;0.40;;;;;;;;;;5083901;28;20079;-59
2022/07/27 14:17:36;;;;;;;;;;;;;;;;;;5083847;28;20512;-56
2022/07/27 14:20:04;;;;;;;0.60;0.50;;;;;;;;;;5086235;28;19928;-57
2022/07/27 14:22:31;;;;;;;0.47;0.43;;;;;;;;;;5085968;28;20087;-57
2022/07/27 14:24:59;;;;;;;0.57;0.30;;;;;;;;;;5089023;28;20052;-58
2022/07/27 14:27:27;;;;;;;0.85;0.40;;;;;;;;;;5087110;28;20131;-57
2022/07/27 14:30:07;;;;;;;0.38;0.38;;;;;;;;;;5089714;28;20051;-58
2022/07/27 14:32:34;;;;;;;2.25;0.60;;;;;;;;;;5087308;28;20052;-57
2022/07/27 14:35:02;;;;;;;;;;;;;;;;;;5089628;28;20113;-58
2022/07/27 14:37:29;;;;;;;0.63;0.50;;;;;;;;;;5089647;28;19949;-58
2022/07/27 14:39:57;;;;;;;1.00;0.30;;;;;;;;;;5090051;28;20483;-57
2022/07/27 14:42:24;;;;;;;0.32;0.32;;;;;;;;;;5088250;28;20486;-55
2022/07/27 14:44:52;;;;;;;1.85;0.50;;;;;;;;;;5087119;28;20055;-57
2022/07/27 14:47:19;;;;;;;1.65;0.43;;;;;;;;;;5091095;28;20086;-58
2022/07/27 14:49:46;;;;;;;1.48;0.43;;;;;;;;;;5091080;28;20533;-57
2022/07/27 14:52:14;;;;;;;1.00;0.70;;;;;;;;;;5092202;28;20091;-58
2022/07/27 14:54:42;;;;;;;2.53;0.60;;;;;;;;;;5091146;28;20052;-58
2022/07/27 14:57:10;;;;;;;0.38;0.30;;;;;;;;;;5091098;28;20257;-57
2022/07/27 14:59:37;;;;;;;;;;;;;;;;;;5089902;28;20048;-56
2022/07/27 15:02:05;;;;;;;2.25;0.50;;;;;;;;;;5086261;28;20390;-58
2022/07/27 15:04:32;;;;;;;0.95;0.70;;;;;;;;;;5088862;28;20056;-58